createdAt,value
2023-05-30T00:04:58.789Z,102613.00
2023-05-30T00:15:20.261Z,102617.00
2023-05-30T00:25:43.450Z,102630.00
2023-05-30T00:36:05.451Z,102632.00
2023-05-30T00:46:30.888Z,102640.00
2023-05-30T00:56:53.669Z,102633.00
2023-05-30T01:07:17.023Z,102634.00
2023-05-30T01:17:51.805Z,102646.00
2023-05-30T01:28:16.423Z,102657.00
2023-05-30T01:38:38.695Z,102667.00
2023-05-30T01:49:12.203Z,102660.00
2023-05-30T01:59:36.029Z,102672.00
2023-05-30T02:09:59.389Z,102663.00
2023-05-30T02:20:21.879Z,102681.00
2023-05-30T02:30:45.768Z,102674.00
2023-05-30T02:41:07.353Z,102668.00
2023-05-30T02:51:32.329Z,102668.00
2023-05-30T03:01:55.644Z,102670.00
2023-05-30T03:12:20.721Z,102679.00
2023-05-30T03:22:42.993Z,102666.00
2023-05-30T03:33:06.259Z,102657.00
2023-05-30T03:43:28.195Z,102647.00
2023-05-30T03:53:51.904Z,102648.00
2023-05-30T04:04:15.926Z,102649.00
2023-05-30T04:14:39.004Z,102660.00
2023-05-30T04:25:01.174Z,102680.00
2023-05-30T04:35:24.258Z,102664.00
2023-05-30T04:45:51.988Z,102672.00
2023-05-30T04:56:17.839Z,102664.00
2023-05-30T05:06:39.461Z,102665.00
2023-05-30T05:17:02.736Z,102646.00
2023-05-30T05:27:24.441Z,102650.00
2023-05-30T05:37:47.910Z,102641.00
2023-05-30T05:48:09.735Z,102620.00
2023-05-30T05:58:32.870Z,102630.00
2023-05-30T06:08:54.424Z,102627.00
2023-05-30T06:19:17.788Z,102619.00
2023-05-30T06:29:39.136Z,102611.00
2023-05-30T06:40:02.012Z,102618.00
2023-05-30T06:50:23.619Z,102625.00
2023-05-30T07:00:47.277Z,102639.00
2023-05-30T07:11:08.822Z,102633.00
2023-05-30T07:21:32.039Z,102645.00
2023-05-30T07:31:53.736Z,102630.00
2023-05-30T07:42:16.757Z,102630.00
2023-05-30T07:52:38.709Z,102639.00
2023-05-30T08:03:23.920Z,102643.00
2023-05-30T08:13:45.829Z,102630.00
2023-05-30T08:24:09.480Z,102620.00
2023-05-30T08:34:31.203Z,102631.00
2023-05-30T08:44:55.337Z,102642.00
2023-05-30T08:55:22.080Z,102612.00
2023-05-30T09:05:46.955Z,102624.00
2023-05-30T09:16:08.734Z,102621.00
2023-05-30T09:26:33.720Z,102634.00
2023-05-30T09:36:57.093Z,102632.00
2023-05-30T09:47:20.944Z,102632.00
2023-05-30T09:57:47.381Z,102622.00
2023-05-30T10:08:12.692Z,102608.00
2023-05-30T10:18:36.336Z,102604.00
2023-05-30T10:28:59.530Z,102624.00
2023-05-30T10:39:31.448Z,102618.00
2023-05-30T10:49:59.395Z,102595.00
2023-05-30T11:00:25.145Z,102598.00
2023-05-30T11:10:58.013Z,102589.00
2023-05-30T11:22:01.477Z,102591.00
2023-05-30T11:32:29.772Z,102585.00
2023-05-30T11:42:53.388Z,102581.00
2023-05-30T11:53:20.057Z,102584.00
2023-05-30T12:03:45.297Z,102547.00
2023-05-30T12:14:08.384Z,102551.00
2023-05-30T12:24:30.575Z,102553.00
2023-05-30T12:34:56.043Z,102556.00
2023-05-30T12:45:17.840Z,102527.00
2023-05-30T12:55:41.185Z,102521.00
2023-05-30T13:06:03.051Z,102543.00
2023-05-30T13:16:26.326Z,102524.00
2023-05-30T13:26:48.276Z,102539.00
2023-05-30T13:37:11.332Z,102534.00
2023-05-30T13:47:33.121Z,102534.00
2023-05-30T13:57:56.497Z,102516.00
2023-05-30T14:08:18.165Z,102520.00
2023-05-30T14:18:43.073Z,102523.00
2023-05-30T14:29:05.214Z,102515.00
2023-05-30T14:39:28.616Z,102523.00
2023-05-30T14:49:50.317Z,102532.00
2023-05-30T15:00:14.249Z,102523.00
2023-05-30T15:10:35.862Z,102517.00
2023-05-30T15:20:59.626Z,102531.00
2023-05-30T15:31:24.966Z,102538.00
2023-05-30T15:41:48.545Z,102526.00
2023-05-30T15:52:12.890Z,102533.00
2023-05-30T16:02:36.671Z,102536.00
2023-05-30T16:12:58.559Z,102553.00
2023-05-30T16:23:21.483Z,102558.00
2023-05-30T16:33:42.983Z,102550.00
2023-05-30T16:44:06.069Z,102557.00
2023-05-30T16:54:27.596Z,102560.00
2023-05-30T17:04:50.967Z,102554.00
2023-05-30T17:15:12.770Z,102570.00
2023-05-30T17:25:41.819Z,102580.00
2023-05-30T17:36:10.043Z,102590.00
2023-05-30T17:46:33.123Z,102594.00
2023-05-30T17:56:55.420Z,102603.00
2023-05-30T18:07:19.862Z,102603.00
2023-05-30T18:17:41.675Z,102612.00
2023-05-30T18:28:08.173Z,102628.00
2023-05-30T18:38:30.446Z,102653.00
2023-05-30T18:48:55.766Z,102657.00
2023-05-30T18:59:17.403Z,102675.00
2023-05-30T19:09:40.511Z,102686.00
2023-05-30T19:20:04.091Z,102699.00
2023-05-30T19:30:27.139Z,102705.00
2023-05-30T19:40:48.649Z,102718.00
2023-05-30T19:51:11.781Z,102729.00
2023-05-30T20:01:33.503Z,102735.00
2023-05-30T20:11:56.424Z,102743.00
2023-05-30T20:22:18.272Z,102754.00
2023-05-30T20:32:43.659Z,102770.00
2023-05-30T20:43:05.408Z,102777.00
2023-05-30T20:53:29.328Z,102787.00
2023-05-30T21:03:51.401Z,102785.00
2023-05-30T21:14:14.585Z,102783.00
2023-05-30T21:24:36.022Z,102801.00
2023-05-30T21:34:59.333Z,102795.00
2023-05-30T21:45:21.012Z,102808.00
2023-05-30T21:55:44.177Z,102815.00
2023-05-30T22:06:06.365Z,102824.00
2023-05-30T22:16:29.234Z,102829.00
2023-05-30T22:26:50.823Z,102831.00
2023-05-30T22:37:14.277Z,102844.00
2023-05-30T22:47:36.298Z,102840.00
2023-05-30T22:58:00.070Z,102843.00
2023-05-30T23:08:26.092Z,102836.00
2023-05-30T23:18:49.113Z,102834.00
2023-05-30T23:29:10.849Z,102851.00
2023-05-30T23:39:34.229Z,102861.00
2023-05-30T23:49:55.816Z,102859.00
